createdAt,value
2023-09-24T00:00:46.999Z,97586.34
2023-09-24T00:03:13.854Z,97595.91
2023-09-24T00:05:40.660Z,97592.72
2023-09-24T00:08:07.338Z,97589.00
2023-09-24T00:10:34.008Z,97597.88
2023-09-24T00:13:00.651Z,97605.97
2023-09-24T00:15:27.276Z,97600.75
2023-09-24T00:17:54.011Z,97606.66
2023-09-24T00:20:20.719Z,97607.03
2023-09-24T00:22:47.368Z,97609.38
2023-09-24T00:25:14.136Z,97608.16
2023-09-24T00:27:40.752Z,97603.44
2023-09-24T00:30:07.374Z,97602.97
2023-09-24T00:32:34.093Z,97614.31
2023-09-24T00:35:00.739Z,97617.75
2023-09-24T00:37:27.335Z,97617.56
2023-09-24T00:39:54.024Z,97609.13
2023-09-24T00:42:20.679Z,97606.78
2023-09-24T00:44:47.291Z,97617.53
2023-09-24T00:47:14.031Z,97608.97
2023-09-24T00:49:40.668Z,97610.50
2023-09-24T00:52:07.306Z,97613.03
2023-09-24T00:54:33.960Z,97605.03
2023-09-24T00:57:00.645Z,97608.34
2023-09-24T00:59:27.321Z,97615.22
2023-09-24T01:01:54.014Z,97632.13
2023-09-24T01:04:20.821Z,97638.84
2023-09-24T01:06:47.503Z,97628.44
2023-09-24T01:09:14.187Z,97634.47
2023-09-24T01:11:40.805Z,97616.88
2023-09-24T01:14:07.426Z,97640.16
2023-09-24T01:16:34.082Z,97623.97
2023-09-24T01:19:00.677Z,97638.06
2023-09-24T01:21:27.545Z,97632.72
2023-09-24T01:23:54.543Z,97634.31
2023-09-24T01:26:21.332Z,97633.63
2023-09-24T01:28:48.082Z,97624.03
2023-09-24T01:31:14.773Z,97623.50
2023-09-24T01:33:41.601Z,97621.03
2023-09-24T01:36:08.387Z,97609.50
2023-09-24T01:38:35.230Z,97605.88
2023-09-24T01:41:02.039Z,97607.50
2023-09-24T01:43:28.687Z,97605.06
2023-09-24T01:45:55.354Z,97605.06
2023-09-24T01:48:22.072Z,97608.09
2023-09-24T01:50:48.788Z,97604.97
2023-09-24T01:53:15.550Z,97611.66
2023-09-24T01:55:42.299Z,97602.19
2023-09-24T01:58:08.917Z,97608.53
2023-09-24T02:00:35.652Z,97608.09
2023-09-24T02:03:02.372Z,97606.56
2023-09-24T02:05:29.091Z,97603.22
2023-09-24T02:07:55.793Z,97599.97
2023-09-24T02:10:22.397Z,97592.44
2023-09-24T02:12:49.009Z,97604.25
2023-09-24T02:15:15.663Z,97603.59
2023-09-24T02:17:42.333Z,97587.03
2023-09-24T02:20:09.009Z,97583.81
2023-09-24T02:22:35.689Z,97572.03
2023-09-24T02:25:02.290Z,97564.63
2023-09-24T02:27:28.934Z,97562.69
2023-09-24T02:29:55.658Z,97562.94
2023-09-24T02:32:22.372Z,97557.13
2023-09-24T02:34:49.005Z,97549.16
2023-09-24T02:37:15.708Z,97532.16
2023-09-24T02:39:42.320Z,97519.88
2023-09-24T02:42:08.944Z,97514.91
2023-09-24T02:44:35.652Z,97507.63
2023-09-24T02:47:02.288Z,97497.75
2023-09-24T02:49:28.928Z,97503.69
2023-09-24T02:51:55.617Z,97507.50
2023-09-24T02:54:22.238Z,97515.13
2023-09-24T02:56:48.882Z,97517.53
2023-09-24T02:59:15.559Z,97508.94
2023-09-24T03:01:42.253Z,97509.56
2023-09-24T03:04:09.154Z,97516.06
2023-09-24T03:06:35.954Z,97512.59
2023-09-24T03:09:02.664Z,97508.88
2023-09-24T03:11:29.317Z,97521.03
2023-09-24T03:13:56.213Z,97514.78
2023-09-24T03:16:22.856Z,97514.66
2023-09-24T03:18:49.743Z,97525.19
2023-09-24T03:21:16.417Z,97514.91
2023-09-24T03:23:43.060Z,97517.94
2023-09-24T03:26:09.720Z,97535.16
2023-09-24T03:28:36.389Z,97536.09
2023-09-24T03:31:02.992Z,97534.91
2023-09-24T03:33:29.759Z,97548.78
2023-09-24T03:35:56.524Z,97561.94
2023-09-24T03:38:23.193Z,97556.53
2023-09-24T03:40:49.810Z,97576.06
2023-09-24T03:43:16.530Z,97579.03
2023-09-24T03:45:43.239Z,97583.19
2023-09-24T03:48:09.876Z,97567.66
2023-09-24T03:50:36.589Z,97593.59
2023-09-24T03:53:03.234Z,97583.56
2023-09-24T03:55:29.868Z,97596.56
2023-09-24T03:57:56.526Z,97605.78
2023-09-24T04:00:23.812Z,97613.47
2023-09-24T04:02:51.497Z,97608.94
2023-09-24T04:05:19.141Z,97618.19
2023-09-24T04:07:47.986Z,97610.84
2023-09-24T04:10:14.686Z,97625.88
2023-09-24T04:12:41.398Z,97625.50
2023-09-24T04:15:08.081Z,97629.28
2023-09-24T04:17:34.774Z,97636.06
2023-09-24T04:20:01.482Z,97631.78
2023-09-24T04:22:28.100Z,97638.03
2023-09-24T04:24:54.702Z,97643.63
2023-09-24T04:27:21.346Z,97645.19
2023-09-24T04:29:47.981Z,97652.44
2023-09-24T04:32:14.615Z,97659.81
2023-09-24T04:34:41.305Z,97650.56
2023-09-24T04:37:07.938Z,97650.13
2023-09-24T04:39:34.569Z,97649.19
2023-09-24T04:42:01.268Z,97655.09
2023-09-24T04:44:27.910Z,97657.16
2023-09-24T04:46:54.559Z,97659.47
2023-09-24T04:49:21.344Z,97658.09
2023-09-24T04:51:48.121Z,97652.75
2023-09-24T04:54:14.828Z,97661.44
2023-09-24T04:56:41.509Z,97660.41
2023-09-24T04:59:08.166Z,97662.19
2023-09-24T05:01:34.812Z,97661.19
2023-09-24T05:04:01.688Z,97670.50
2023-09-24T05:06:28.545Z,97678.75
2023-09-24T05:08:55.286Z,97684.56
2023-09-24T05:11:21.991Z,97691.91
2023-09-24T05:13:48.842Z,97699.47
2023-09-24T05:16:15.637Z,97703.63
2023-09-24T05:18:42.432Z,97710.41
2023-09-24T05:21:09.173Z,97708.25
2023-09-24T05:23:35.827Z,97696.09
2023-09-24T05:26:02.558Z,97706.88
2023-09-24T05:28:29.216Z,97720.66
2023-09-24T05:30:55.872Z,97704.06
2023-09-24T05:33:22.793Z,97713.00
2023-09-24T05:35:49.711Z,97718.72
2023-09-24T05:38:16.370Z,97713.91
2023-09-24T05:40:43.014Z,97719.84
2023-09-24T05:43:09.639Z,97720.91
2023-09-24T05:45:36.293Z,97727.03
2023-09-24T05:48:03.106Z,97731.09
2023-09-24T05:50:29.924Z,97729.38
2023-09-24T05:52:56.727Z,97732.59
2023-09-24T05:55:23.474Z,97736.66
2023-09-24T05:57:50.207Z,97741.75
2023-09-24T06:00:16.851Z,97741.97
2023-09-24T06:02:43.584Z,97728.44
2023-09-24T06:05:10.234Z,97745.69
2023-09-24T06:07:36.838Z,97748.72
2023-09-24T06:10:03.476Z,97753.22
2023-09-24T06:12:30.096Z,97761.25
2023-09-24T06:14:56.790Z,97763.72
2023-09-24T06:17:23.539Z,97773.25
2023-09-24T06:19:50.516Z,97772.25
2023-09-24T06:22:17.127Z,97774.56
2023-09-24T06:24:43.809Z,97787.97
2023-09-24T06:27:10.464Z,97787.91
2023-09-24T06:29:37.168Z,97790.41
2023-09-24T06:32:03.940Z,97799.00
2023-09-24T06:34:30.597Z,97795.19
2023-09-24T06:36:57.241Z,97800.63
2023-09-24T06:39:23.886Z,97812.94
2023-09-24T06:41:50.537Z,97817.22
2023-09-24T06:44:17.201Z,97815.97
2023-09-24T06:46:43.866Z,97815.31
2023-09-24T06:49:10.517Z,97818.84
2023-09-24T06:51:37.173Z,97820.09
2023-09-24T06:54:03.912Z,97810.72
2023-09-24T06:56:30.666Z,97816.75
2023-09-24T06:58:57.282Z,97823.81
2023-09-24T07:01:23.970Z,97827.28
2023-09-24T07:03:50.821Z,97822.22
2023-09-24T07:06:17.772Z,97822.78
2023-09-24T07:08:44.579Z,97818.50
2023-09-24T07:11:11.227Z,97828.34
2023-09-24T07:13:37.825Z,97828.00
2023-09-24T07:16:04.542Z,97826.72
2023-09-24T07:18:31.295Z,97820.47
2023-09-24T07:20:58.043Z,97822.97
2023-09-24T07:23:24.755Z,97830.91
2023-09-24T07:25:51.359Z,97819.88
2023-09-24T07:28:18.003Z,97826.63
2023-09-24T07:30:44.693Z,97824.53
2023-09-24T07:33:11.426Z,97821.16
2023-09-24T07:35:38.318Z,97822.78
2023-09-24T07:38:05.493Z,97824.63
2023-09-24T07:40:32.121Z,97828.56
2023-09-24T07:42:58.772Z,97830.31
2023-09-24T07:45:25.516Z,97826.63
2023-09-24T07:47:52.338Z,97831.94
2023-09-24T07:50:19.009Z,97839.94
2023-09-24T07:52:45.672Z,97840.28
2023-09-24T07:55:12.321Z,97844.44
2023-09-24T07:57:38.961Z,97843.88
2023-09-24T08:00:05.707Z,97858.38
2023-09-24T08:02:32.434Z,97848.16
2023-09-24T08:04:59.135Z,97856.28
2023-09-24T08:07:25.923Z,97864.44
2023-09-24T08:09:52.554Z,97867.56
2023-09-24T08:12:19.185Z,97867.06
2023-09-24T08:14:45.992Z,97867.50
2023-09-24T08:17:12.785Z,97860.03
2023-09-24T08:19:39.413Z,97869.72
2023-09-24T08:22:06.118Z,97869.88
2023-09-24T08:24:32.744Z,97876.97
2023-09-24T08:26:59.393Z,97877.25
2023-09-24T08:29:26.097Z,97882.00
2023-09-24T08:31:52.739Z,97887.44
2023-09-24T08:34:19.446Z,97875.06
2023-09-24T08:36:46.123Z,97883.63
2023-09-24T08:39:12.796Z,97893.09
2023-09-24T08:41:39.509Z,97896.41
2023-09-24T08:44:06.233Z,97895.84
2023-09-24T08:46:32.975Z,97886.13
2023-09-24T08:48:59.742Z,97901.22
2023-09-24T08:51:27.339Z,97915.56
2023-09-24T08:53:53.954Z,97919.63
2023-09-24T08:56:20.623Z,97915.28
2023-09-24T08:58:47.582Z,97913.34
2023-09-24T09:01:14.433Z,97918.09
2023-09-24T09:03:41.450Z,97924.56
2023-09-24T09:06:08.574Z,97927.81
2023-09-24T09:08:35.272Z,97905.50
2023-09-24T09:11:01.919Z,97912.28
2023-09-24T09:13:28.612Z,97920.53
2023-09-24T09:15:55.224Z,97930.13
2023-09-24T09:18:21.979Z,97934.38
2023-09-24T09:20:48.768Z,97923.91
2023-09-24T09:23:15.398Z,97920.56
2023-09-24T09:25:42.012Z,97923.81
2023-09-24T09:28:08.682Z,97925.47
2023-09-24T09:30:35.294Z,97922.25
2023-09-24T09:33:01.992Z,97937.28
2023-09-24T09:35:28.708Z,97939.41
2023-09-24T09:37:55.362Z,97944.50
2023-09-24T09:40:21.989Z,97938.78
2023-09-24T09:42:48.674Z,97929.09
2023-09-24T09:45:15.334Z,97935.09
2023-09-24T09:47:42.080Z,97937.44
2023-09-24T09:50:08.792Z,97945.66
2023-09-24T09:52:35.438Z,97948.88
2023-09-24T09:55:02.110Z,97952.53
2023-09-24T09:57:28.781Z,97957.97
2023-09-24T09:59:55.461Z,97955.03
2023-09-24T10:02:22.097Z,97955.91
2023-09-24T10:04:48.761Z,97966.91
2023-09-24T10:07:15.397Z,97952.44
2023-09-24T10:09:42.035Z,97960.63
2023-09-24T10:12:08.905Z,97959.63
2023-09-24T10:14:35.617Z,97963.41
2023-09-24T10:17:02.233Z,97962.44
2023-09-24T10:19:28.931Z,97969.84
2023-09-24T10:21:55.575Z,97972.81
2023-09-24T10:24:22.287Z,97971.25
2023-09-24T10:26:49.065Z,97971.44
2023-09-24T10:29:15.780Z,97984.03
2023-09-24T10:31:42.422Z,97969.34
2023-09-24T10:34:09.218Z,97975.25
2023-09-24T10:36:35.884Z,97977.72
2023-09-24T10:39:02.601Z,97968.66
2023-09-24T10:41:29.298Z,97974.78
2023-09-24T10:43:55.939Z,97981.94
2023-09-24T10:46:22.635Z,97972.63
2023-09-24T10:48:50.432Z,97980.91
2023-09-24T10:51:17.277Z,97986.81
2023-09-24T10:53:43.961Z,97983.53
2023-09-24T10:56:12.226Z,97990.66
2023-09-24T10:58:39.077Z,97976.94
2023-09-24T11:01:05.784Z,97977.66
2023-09-24T11:03:32.668Z,97993.25
2023-09-24T11:05:59.389Z,97973.03
2023-09-24T11:08:26.047Z,97977.13
2023-09-24T11:10:52.738Z,97993.75
2023-09-24T11:13:19.382Z,97990.94
2023-09-24T11:15:46.166Z,97982.97
2023-09-24T11:18:13.020Z,97989.78
2023-09-24T11:20:39.750Z,97988.13
2023-09-24T11:23:06.446Z,97992.84
2023-09-24T11:25:33.193Z,97991.41
2023-09-24T11:27:59.881Z,97991.22
2023-09-24T11:30:26.532Z,97995.13
2023-09-24T11:32:53.341Z,97997.59
2023-09-24T11:35:20.072Z,98002.63
2023-09-24T11:37:46.709Z,98006.78
2023-09-24T11:40:13.362Z,97996.44
2023-09-24T11:42:39.980Z,98007.84
2023-09-24T11:45:06.673Z,98002.97
2023-09-24T11:47:33.418Z,98018.06
2023-09-24T11:50:00.122Z,98011.56
2023-09-24T11:52:26.813Z,98024.94
2023-09-24T11:54:53.489Z,98026.13
2023-09-24T11:57:20.155Z,98017.59
2023-09-24T11:59:46.826Z,98021.53
2023-09-24T12:02:13.516Z,98026.09
2023-09-24T12:04:40.161Z,98024.75
2023-09-24T12:07:06.802Z,98024.50
2023-09-24T12:09:33.485Z,98020.75
2023-09-24T12:12:00.209Z,98030.81
2023-09-24T12:14:26.887Z,98030.66
2023-09-24T12:16:53.559Z,98030.81
2023-09-24T12:19:20.178Z,98023.19
2023-09-24T12:21:46.822Z,98032.06
2023-09-24T12:24:13.524Z,98040.47
2023-09-24T12:26:40.184Z,98029.22
2023-09-24T12:29:06.813Z,98020.59
2023-09-24T12:31:33.559Z,98021.28
2023-09-24T12:34:00.290Z,98030.09
2023-09-24T12:36:26.987Z,98029.59
2023-09-24T12:38:53.707Z,98024.81
2023-09-24T12:41:20.398Z,98022.66
2023-09-24T12:43:47.014Z,98022.41
2023-09-24T12:46:13.794Z,98025.53
2023-09-24T12:48:40.703Z,98024.66
2023-09-24T12:51:07.500Z,98018.81
2023-09-24T12:53:34.351Z,98027.38
2023-09-24T12:56:00.977Z,98027.88
2023-09-24T12:58:27.639Z,98027.94
2023-09-24T13:00:54.294Z,98021.78
2023-09-24T13:03:21.126Z,98014.47
2023-09-24T13:05:47.943Z,98007.66
2023-09-24T13:08:14.623Z,98027.66
2023-09-24T13:10:41.235Z,98027.09
2023-09-24T13:13:07.860Z,98028.38
2023-09-24T13:15:34.535Z,98038.56
2023-09-24T13:18:01.323Z,98031.06
2023-09-24T13:20:28.028Z,98025.91
2023-09-24T13:22:54.712Z,98034.81
2023-09-24T13:25:21.338Z,98017.13
2023-09-24T13:27:50.776Z,98009.69
2023-09-24T13:30:17.563Z,98015.50
2023-09-24T13:32:44.351Z,98022.41
2023-09-24T13:35:11.025Z,98010.91
2023-09-24T13:37:37.803Z,98022.00
2023-09-24T13:40:04.422Z,98020.91
2023-09-24T13:42:31.099Z,98030.69
2023-09-24T13:44:57.790Z,98038.47
2023-09-24T13:47:24.422Z,98036.00
2023-09-24T13:49:51.049Z,98027.63
2023-09-24T13:52:17.739Z,98034.34
2023-09-24T13:54:44.377Z,98025.75
2023-09-24T13:57:11.029Z,98026.97
2023-09-24T13:59:37.761Z,98024.53
2023-09-24T14:02:04.463Z,98021.56
2023-09-24T14:04:31.186Z,98024.75
2023-09-24T14:06:57.890Z,98011.63
2023-09-24T14:09:24.584Z,98005.06
2023-09-24T14:11:51.253Z,98010.91
2023-09-24T14:14:17.951Z,98004.06
2023-09-24T14:16:46.271Z,98004.16
2023-09-24T14:19:15.498Z,98007.94
2023-09-24T14:21:42.158Z,98013.03
2023-09-24T14:24:08.854Z,98004.03
2023-09-24T14:26:35.495Z,98018.00
2023-09-24T14:29:02.147Z,98006.06
2023-09-24T14:31:28.763Z,98007.28
2023-09-24T14:33:55.450Z,98011.88
2023-09-24T14:36:22.215Z,98011.75
2023-09-24T14:38:48.904Z,98003.97
2023-09-24T14:41:15.532Z,97998.56
2023-09-24T14:43:42.228Z,97995.25
2023-09-24T14:46:08.902Z,98008.72
2023-09-24T14:48:35.688Z,98006.63
2023-09-24T14:51:02.564Z,98005.53
2023-09-24T14:53:29.254Z,98004.28
2023-09-24T14:55:55.856Z,98005.41
2023-09-24T14:58:22.544Z,97996.00
2023-09-24T15:00:49.223Z,98001.28
2023-09-24T15:03:15.997Z,98003.28
2023-09-24T15:05:42.747Z,98008.44
2023-09-24T15:08:09.382Z,97995.34
2023-09-24T15:10:36.018Z,98002.31
2023-09-24T15:13:02.734Z,97997.94
2023-09-24T15:15:29.450Z,97993.53
2023-09-24T15:17:56.213Z,97999.13
2023-09-24T15:20:22.977Z,97984.66
2023-09-24T15:22:49.753Z,97986.22
2023-09-24T15:25:16.356Z,97984.03
2023-09-24T15:27:43.006Z,97988.25
2023-09-24T15:30:09.680Z,97993.41
2023-09-24T15:32:36.396Z,97994.75
2023-09-24T15:35:03.134Z,97997.31
2023-09-24T15:37:29.777Z,97997.31
2023-09-24T15:39:56.382Z,97998.84
2023-09-24T15:42:23.115Z,97995.09
2023-09-24T15:44:49.857Z,97997.31
2023-09-24T15:47:16.585Z,98006.38
2023-09-24T15:49:43.296Z,97994.59
2023-09-24T15:52:09.907Z,97993.84
2023-09-24T15:54:36.625Z,97988.56
2023-09-24T15:57:03.458Z,97991.06
2023-09-24T15:59:30.132Z,97998.84
2023-09-24T16:01:56.779Z,98003.34
2023-09-24T16:04:23.533Z,97996.84
2023-09-24T16:06:50.183Z,97996.50
2023-09-24T16:09:16.884Z,98004.75
2023-09-24T16:11:43.617Z,97999.69
2023-09-24T16:14:10.237Z,98007.22
2023-09-24T16:16:37.004Z,98002.69
2023-09-24T16:19:03.768Z,98005.53
2023-09-24T16:21:30.432Z,98006.75
2023-09-24T16:23:57.101Z,97998.97
2023-09-24T16:26:23.816Z,98004.91
2023-09-24T16:28:50.437Z,98011.97
2023-09-24T16:31:17.084Z,98007.22
2023-09-24T16:33:43.826Z,98008.47
2023-09-24T16:36:10.567Z,98012.63
2023-09-24T16:38:37.292Z,98006.66
2023-09-24T16:41:03.966Z,98017.25
2023-09-24T16:43:30.556Z,98021.78
2023-09-24T16:45:57.220Z,98021.72
2023-09-24T16:48:23.976Z,98024.84
2023-09-24T16:50:50.697Z,98028.41
2023-09-24T16:53:17.344Z,98028.50
2023-09-24T16:55:44.032Z,98034.88
2023-09-24T16:58:10.730Z,98033.81
2023-09-24T17:00:37.347Z,98037.00
2023-09-24T17:03:04.132Z,98041.59
2023-09-24T17:05:30.843Z,98042.78
2023-09-24T17:07:57.699Z,98048.69
2023-09-24T17:10:24.360Z,98045.78
2023-09-24T17:12:50.958Z,98049.78
2023-09-24T17:15:17.596Z,98042.97
2023-09-24T17:17:44.328Z,98055.25
2023-09-24T17:20:10.999Z,98052.78
2023-09-24T17:22:37.615Z,98054.31
2023-09-24T17:25:04.380Z,98066.13
2023-09-24T17:27:31.209Z,98065.66
2023-09-24T17:29:57.857Z,98067.41
2023-09-24T17:32:24.843Z,98067.28
2023-09-24T17:34:51.699Z,98065.31
2023-09-24T17:37:18.351Z,98070.22
2023-09-24T17:39:45.020Z,98083.72
2023-09-24T17:42:11.674Z,98085.03
2023-09-24T17:44:38.318Z,98086.03
2023-09-24T17:47:05.000Z,98083.66
2023-09-24T17:49:31.648Z,98088.22
2023-09-24T17:51:58.297Z,98089.03
2023-09-24T17:54:25.022Z,98095.34
2023-09-24T17:56:51.749Z,98099.88
2023-09-24T17:59:18.378Z,98098.75
2023-09-24T18:01:45.091Z,98094.69
2023-09-24T18:04:11.786Z,98107.84
2023-09-24T18:06:38.551Z,98107.81
2023-09-24T18:09:05.241Z,98108.06
2023-09-24T18:11:31.868Z,98105.13
2023-09-24T18:13:58.613Z,98106.34
2023-09-24T18:16:25.369Z,98110.34
2023-09-24T18:18:52.065Z,98106.22
2023-09-24T18:21:18.744Z,98108.59
2023-09-24T18:23:45.443Z,98110.72
2023-09-24T18:26:12.040Z,98107.97
2023-09-24T18:28:38.692Z,98114.88
2023-09-24T18:31:05.402Z,98125.69
2023-09-24T18:33:32.079Z,98123.78
2023-09-24T18:35:58.776Z,98119.03
2023-09-24T18:38:25.564Z,98125.59
2023-09-24T18:40:52.257Z,98125.97
2023-09-24T18:43:18.873Z,98130.34
2023-09-24T18:45:45.534Z,98125.78
2023-09-24T18:48:12.218Z,98136.59
2023-09-24T18:50:38.881Z,98123.31
2023-09-24T18:53:05.876Z,98133.28
2023-09-24T18:55:32.490Z,98125.91
2023-09-24T18:57:59.107Z,98122.06
2023-09-24T19:00:26.002Z,98120.34
2023-09-24T19:02:53.010Z,98119.53
2023-09-24T19:05:19.713Z,98132.31
2023-09-24T19:07:46.367Z,98128.06
2023-09-24T19:10:13.019Z,98127.91
2023-09-24T19:12:39.673Z,98132.19
2023-09-24T19:15:06.367Z,98122.13
2023-09-24T19:17:33.051Z,98130.31
2023-09-24T19:19:59.693Z,98129.47
2023-09-24T19:22:26.393Z,98130.28
2023-09-24T19:24:55.094Z,98126.81
2023-09-24T19:27:21.725Z,98130.72
2023-09-24T19:29:48.369Z,98122.75
2023-09-24T19:32:15.041Z,98129.44
2023-09-24T19:34:41.639Z,98131.72
2023-09-24T19:37:08.287Z,98135.94
2023-09-24T19:39:34.924Z,98117.06
2023-09-24T19:42:01.646Z,98125.25
2023-09-24T19:44:28.313Z,98122.97
2023-09-24T19:46:55.091Z,98123.31
2023-09-24T19:49:21.774Z,98122.16
2023-09-24T19:51:48.437Z,98122.75
2023-09-24T19:54:15.164Z,98113.00
2023-09-24T19:56:41.877Z,98115.41
2023-09-24T19:59:08.554Z,98106.97
2023-09-24T20:01:35.255Z,98116.00
2023-09-24T20:04:01.890Z,98111.09
2023-09-24T20:06:28.561Z,98109.69
2023-09-24T20:08:55.206Z,98102.91
2023-09-24T20:11:21.897Z,98102.53
2023-09-24T20:13:48.562Z,98098.00
2023-09-24T20:16:15.277Z,98101.53
2023-09-24T20:18:42.040Z,98099.66
2023-09-24T20:21:08.763Z,98103.47
2023-09-24T20:23:35.412Z,98091.84
2023-09-24T20:26:02.026Z,98097.78
2023-09-24T20:31:00.242Z,98111.06
2023-09-24T20:33:33.907Z,98110.34
2023-09-24T20:36:05.451Z,98117.34
2023-09-24T20:38:32.094Z,98109.41
2023-09-24T20:40:58.736Z,98114.34
2023-09-24T20:43:25.382Z,98110.31
2023-09-24T20:45:52.010Z,98106.75
2023-09-24T20:48:18.743Z,98113.00
2023-09-24T20:50:45.486Z,98112.06
2023-09-24T20:53:12.193Z,98107.84
2023-09-24T20:55:38.820Z,98116.47
2023-09-24T20:58:05.508Z,98116.22
2023-09-24T21:00:32.184Z,98119.06
2023-09-24T21:02:58.929Z,98122.81
2023-09-24T21:05:25.776Z,98119.94
2023-09-24T21:07:52.444Z,98118.50
2023-09-24T21:10:19.255Z,98120.31
2023-09-24T21:12:45.935Z,98123.91
2023-09-24T21:15:12.603Z,98129.44
2023-09-24T21:17:39.245Z,98130.25
2023-09-24T21:20:05.930Z,98130.53
2023-09-24T21:22:32.584Z,98129.44
2023-09-24T21:24:59.207Z,98133.22
2023-09-24T21:27:26.129Z,98133.09
2023-09-24T21:29:52.802Z,98135.94
2023-09-24T21:32:19.433Z,98131.91
2023-09-24T21:34:46.185Z,98127.41
2023-09-24T21:37:12.804Z,98124.75
2023-09-24T21:39:39.513Z,98127.16
2023-09-24T21:42:06.263Z,98131.84
2023-09-24T21:44:33.075Z,98131.91
2023-09-24T21:46:59.726Z,98120.41
2023-09-24T21:49:26.414Z,98123.19
2023-09-24T21:51:53.139Z,98121.91
2023-09-24T21:54:19.872Z,98120.66
2023-09-24T21:56:46.592Z,98122.28
2023-09-24T21:59:13.302Z,98119.88
2023-09-24T22:01:39.987Z,98121.91
2023-09-24T22:04:06.918Z,98126.41
2023-09-24T22:06:33.747Z,98113.88
2023-09-24T22:09:00.485Z,98113.97
2023-09-24T22:11:27.264Z,98113.13
2023-09-24T22:13:53.886Z,98109.09
2023-09-24T22:16:20.515Z,98108.91
2023-09-24T22:18:47.453Z,98115.41
2023-09-24T22:21:14.216Z,98119.31
2023-09-24T22:23:40.833Z,98121.28
2023-09-24T22:26:07.503Z,98119.41
2023-09-24T22:28:34.107Z,98113.97
2023-09-24T22:31:00.740Z,98115.63
2023-09-24T22:33:27.450Z,98113.53
2023-09-24T22:35:54.112Z,98127.66
2023-09-24T22:38:20.711Z,98123.34
2023-09-24T22:40:47.399Z,98120.31
2023-09-24T22:43:25.712Z,98122.63
2023-09-24T22:45:54.036Z,98121.13
2023-09-24T22:48:20.965Z,98117.88
2023-09-24T22:50:47.665Z,98116.84
2023-09-24T22:53:14.337Z,98112.66
2023-09-24T22:55:40.950Z,98113.13
2023-09-24T22:58:09.819Z,98119.13
2023-09-24T23:00:36.788Z,98119.66
2023-09-24T23:03:03.523Z,98116.13
2023-09-24T23:05:30.346Z,98110.97
2023-09-24T23:07:57.002Z,98116.13
2023-09-24T23:10:23.773Z,98111.94
2023-09-24T23:12:50.378Z,98120.88
2023-09-24T23:15:17.113Z,98121.66
2023-09-24T23:17:43.807Z,98121.53
2023-09-24T23:20:10.430Z,98122.34
2023-09-24T23:22:37.125Z,98124.25
2023-09-24T23:25:03.773Z,98126.91
2023-09-24T23:27:30.453Z,98124.13
2023-09-24T23:29:57.149Z,98119.44
2023-09-24T23:32:23.775Z,98120.41
2023-09-24T23:34:50.382Z,98128.13
2023-09-24T23:37:17.068Z,98126.56
2023-09-24T23:39:43.695Z,98126.75
2023-09-24T23:42:10.336Z,98118.81
2023-09-24T23:44:37.030Z,98126.16
2023-09-24T23:47:03.647Z,98130.00
2023-09-24T23:49:30.246Z,98122.53
2023-09-24T23:51:57.002Z,98124.56
2023-09-24T23:54:23.738Z,98132.56
2023-09-24T23:56:50.374Z,98129.31
2023-09-24T23:59:17.055Z,98131.50
